Time;durP1;ratioP1;P1;durP2;ratioP2;P2;SDS_P1;SDS_P2;PMS_P1;PMS_P2;Temp;Humidity;BMP_temperature;BMP_pressure;BME280_temperature;BME280_humidity;BME280_pressure;Samples;Min_cycle;Max_cycle;Signal;HPM_P1;HPM_P2
2023/11/26 00:01:17;;;;;;;8.73;7.83;;;5.40;99.90;;;;;;5033464;28;20185;-73
2023/11/26 00:03:42;;;;;;;10.53;7.37;;;5.40;99.90;;;;;;5033751;28;20193;-70
2023/11/26 00:06:09;;;;;;;12.40;7.57;;;5.40;99.90;;;;;;5032887;28;20702;-68
2023/11/26 00:08:35;;;;;;;13.87;8.30;;;5.40;99.90;;;;;;5034887;28;20224;-73
2023/11/26 00:11:01;;;;;;;9.53;7.53;;;5.40;99.90;;;;;;5033052;28;20425;-71
2023/11/26 00:13:27;;;;;;;12.20;7.50;;;5.40;99.90;;;;;;5032407;28;20428;-73
2023/11/26 00:15:52;;;;;;;10.03;6.40;;;5.40;99.90;;;;;;5032801;28;20301;-72
2023/11/26 00:18:18;;;;;;;9.93;6.70;;;5.30;99.90;;;;;;5031578;28;20225;-67
2023/11/26 00:20:44;;;;;;;11.43;6.30;;;5.30;99.90;;;;;;5033550;28;20228;-69
2023/11/26 00:23:10;;;;;;;9.50;6.80;;;5.20;99.90;;;;;;5031612;28;20186;-69
2023/11/26 00:25:35;;;;;;;8.83;7.10;;;5.20;99.90;;;;;;5032527;28;20185;-70
2023/11/26 00:28:01;;;;;;;11.77;7.83;;;5.30;99.90;;;;;;5032734;28;20183;-69
2023/11/26 00:30:27;;;;;;;9.67;6.57;;;5.30;99.90;;;;;;5032837;28;20651;-70
2023/11/26 00:32:53;;;;;;;8.60;6.90;;;5.30;99.90;;;;;;5033568;28;20432;-68
2023/11/26 00:35:18;;;;;;;10.20;6.07;;;5.30;99.90;;;;;;5032312;28;20649;-66
2023/11/26 00:37:44;;;;;;;7.90;6.60;;;5.30;99.90;;;;;;5034545;28;20226;-65
2023/11/26 00:40:12;;;;;;;10.03;6.07;;;5.30;99.90;;;;;;5031806;28;20216;-65
2023/11/26 00:42:38;;;;;;;8.13;5.63;;;5.30;99.90;;;;;;5032640;28;20190;-67
2023/11/26 00:45:04;;;;;;;8.43;6.03;;;5.20;99.90;;;;;;5032618;28;20416;-67
2023/11/26 00:47:30;;;;;;;7.00;5.67;;;5.20;99.90;;;;;;5032919;28;20437;-70
2023/11/26 00:50:00;;;;;;;7.33;4.93;;;5.20;99.90;;;;;;5031568;28;20440;-72
2023/11/26 00:52:26;;;;;;;8.40;5.90;;;5.20;99.90;;;;;;5032273;28;20618;-73
2023/11/26 00:54:52;;;;;;;7.23;5.13;;;5.20;99.90;;;;;;5031670;28;20849;-72
2023/11/26 00:57:18;;;;;;;6.20;5.33;;;5.20;99.90;;;;;;5032327;28;20425;-67
2023/11/26 00:59:43;;;;;;;7.90;5.00;;;5.20;99.90;;;;;;5033318;28;20290;-68
2023/11/26 01:02:10;;;;;;;6.27;4.80;;;5.10;99.90;;;;;;5029587;28;20190;-70
2023/11/26 01:04:36;;;;;;;5.67;4.87;;;5.20;99.90;;;;;;5031887;28;20201;-67
2023/11/26 01:07:02;;;;;;;7.17;5.27;;;5.20;99.90;;;;;;5032964;28;20437;-69
2023/11/26 01:09:28;;;;;;;9.17;5.83;;;5.20;99.90;;;;;;5031690;28;20429;-67
2023/11/26 01:11:54;;;;;;;7.80;5.20;;;5.20;99.90;;;;;;5031964;28;20468;-68
2023/11/26 01:14:20;;;;;;;6.00;5.13;;;5.20;99.90;;;;;;5030222;28;20527;-73
2023/11/26 01:16:46;;;;;;;10.30;4.70;;;5.30;99.90;;;;;;5032313;28;20186;-69
2023/11/26 01:19:12;;;;;;;6.93;4.40;;;5.20;99.90;;;;;;5031010;28;20464;-69
2023/11/26 01:21:38;;;;;;;8.03;5.20;;;5.20;99.90;;;;;;5032134;28;20861;-69
2023/11/26 01:24:06;;;;;;;6.60;5.00;;;5.20;99.90;;;;;;5031008;28;20515;-65
2023/11/26 01:26:32;;;;;;;9.10;5.37;;;5.10;99.90;;;;;;5031194;28;20486;-71
2023/11/26 01:28:58;;;;;;;8.30;5.60;;;5.20;99.90;;;;;;5031809;28;20428;-67
2023/11/26 01:31:24;;;;;;;7.07;5.20;;;5.20;99.90;;;;;;5031487;28;20432;-71
2023/11/26 01:33:50;;;;;;;5.67;5.10;;;5.20;99.90;;;;;;5030595;28;20450;-68
2023/11/26 01:36:16;;;;;;;5.60;4.93;;;5.20;99.90;;;;;;5030783;28;20182;-68
2023/11/26 01:38:41;;;;;;;5.70;4.93;;;5.10;99.90;;;;;;5032229;28;20216;-70
2023/11/26 01:41:07;;;;;;;7.73;5.37;;;5.10;99.90;;;;;;5030955;28;20204;-70
2023/11/26 01:43:33;;;;;;;7.13;6.53;;;5.10;99.90;;;;;;5031616;28;20201;-69
2023/11/26 01:46:07;;;;;;;8.23;5.47;;;5.00;99.90;;;;;;5031102;28;20206;-68
2023/11/26 01:48:35;;;;;;;6.10;5.33;;;5.00;99.90;;;;;;5029731;28;20260;-66
2023/11/26 01:51:03;;;;;;;7.13;5.20;;;5.00;99.90;;;;;;5031161;28;20433;-69
2023/11/26 01:53:30;;;;;;;8.20;5.27;;;4.90;99.90;;;;;;5030467;28;20461;-66
2023/11/26 01:55:56;;;;;;;5.60;4.97;;;4.90;99.90;;;;;;5030987;28;20870;-72
2023/11/26 01:58:22;;;;;;;7.50;5.70;;;4.80;99.90;;;;;;5030338;28;20468;-66
2023/11/26 02:00:49;;;;;;;7.60;6.50;;;4.80;99.90;;;;;;5031189;28;20428;-68
2023/11/26 02:03:15;;;;;;;7.40;5.20;;;4.70;99.90;;;;;;5030762;28;20251;-68
2023/11/26 02:05:41;;;;;;;7.07;5.97;;;4.80;99.90;;;;;;5030020;28;20435;-68
2023/11/26 02:08:07;;;;;;;9.27;5.90;;;4.70;99.90;;;;;;5030925;28;20417;-69
2023/11/26 02:10:33;;;;;;;7.77;5.93;;;4.80;99.90;;;;;;5031005;28;20813;-70
2023/11/26 02:13:04;;;;;;;6.97;6.27;;;4.80;99.90;;;;;;5030031;28;20178;-69
2023/11/26 02:15:30;;;;;;;7.27;6.50;;;4.90;99.90;;;;;;5030188;28;20430;-61
2023/11/26 02:17:56;;;;;;;10.00;6.40;;;5.00;99.90;;;;;;5031285;28;20469;-69
2023/11/26 02:20:25;;;;;;;8.30;5.90;;;4.90;99.90;;;;;;5030298;28;20432;-66
2023/11/26 02:22:52;;;;;;;8.80;6.50;;;5.00;99.90;;;;;;5028493;28;20531;-68
2023/11/26 02:25:20;;;;;;;7.13;6.43;;;5.10;99.90;;;;;;5029652;28;20433;-71
2023/11/26 02:27:46;;;;;;;6.20;5.60;;;5.10;99.90;;;;;;5029859;28;20432;-72
2023/11/26 02:30:13;;;;;;;16.00;6.80;;;5.00;99.90;;;;;;5030653;28;20535;-71
2023/11/26 02:32:39;;;;;;;10.60;6.80;;;5.10;99.90;;;;;;5030085;28;20449;-67
2023/11/26 02:35:05;;;;;;;12.50;6.57;;;5.10;99.90;;;;;;5030154;28;21264;-71
2023/11/26 02:37:31;;;;;;;8.07;6.97;;;5.00;99.90;;;;;;5030695;28;20416;-70
2023/11/26 02:39:57;;;;;;;12.10;8.43;;;5.00;99.90;;;;;;5030488;28;20456;-65
2023/11/26 02:42:22;;;;;;;12.03;8.47;;;4.90;99.90;;;;;;5030436;28;20432;-67
2023/11/26 02:44:49;;;;;;;15.83;8.63;;;4.90;99.90;;;;;;5029749;28;20949;-70
2023/11/26 02:47:15;;;;;;;11.50;8.30;;;4.90;99.90;;;;;;5030665;28;20185;-68
2023/11/26 02:49:42;;;;;;;10.30;8.03;;;4.90;99.90;;;;;;5028160;28;20879;-66
2023/11/26 02:52:09;;;;;;;12.37;9.03;;;4.90;99.90;;;;;;5030265;28;20817;-64
2023/11/26 02:54:35;;;;;;;13.60;9.00;;;5.00;99.90;;;;;;5029226;28;20428;-70
2023/11/26 02:57:00;;;;;;;14.50;10.33;;;4.90;99.90;;;;;;5029430;28;21189;-71
2023/11/26 02:59:26;;;;;;;14.07;10.60;;;4.90;99.90;;;;;;5030387;28;20218;-66
2023/11/26 03:01:57;;;;;;;15.10;11.10;;;4.90;99.90;;;;;;5029366;28;20186;-69
2023/11/26 03:04:23;;;;;;;16.53;11.10;;;4.80;99.90;;;;;;5029965;28;20305;-75
2023/11/26 03:06:51;;;;;;;13.20;10.90;;;4.80;99.90;;;;;;5029502;28;20480;-69
2023/11/26 03:14:45;;;;;;;14.70;10.83;;;4.70;99.90;;;;;;5028675;28;20432;-73
2023/11/26 03:17:14;;;;;;;16.40;11.20;;;4.70;99.90;;;;;;5029288;28;20487;-68
2023/11/26 03:19:40;;;;;;;18.70;10.73;;;4.70;99.90;;;;;;5029264;28;20818;-69
2023/11/26 03:22:09;;;;;;;13.83;10.50;;;4.70;99.90;;;;;;5029041;28;20433;-70
2023/11/26 03:24:36;;;;;;;17.10;10.13;;;4.70;99.90;;;;;;5029598;28;20476;-67
2023/11/26 03:27:02;;;;;;;15.20;9.90;;;4.80;99.90;;;;;;5032768;28;20428;-70
2023/11/26 03:29:29;;;;;;;14.63;8.83;;;4.90;99.90;;;;;;5034659;28;20779;-68
2023/11/26 03:31:55;;;;;;;13.93;8.70;;;4.90;99.90;;;;;;5033472;28;20432;-71
2023/11/26 03:34:21;;;;;;;11.50;8.53;;;4.90;99.90;;;;;;5032880;28;20447;-69
2023/11/26 03:36:47;;;;;;;13.50;8.83;;;4.90;99.90;;;;;;5032876;28;20830;-62
2023/11/26 03:39:12;;;;;;;13.37;9.70;;;4.90;99.90;;;;;;5033451;28;20582;-69
2023/11/26 03:41:38;;;;;;;11.83;8.63;;;4.90;99.90;;;;;;5033569;28;20276;-67
2023/11/26 03:44:04;;;;;;;12.63;8.80;;;4.90;99.90;;;;;;5032686;28;20182;-67
2023/11/26 03:46:32;;;;;;;11.57;7.90;;;4.90;99.90;;;;;;5032587;28;20775;-70
2023/11/26 03:48:59;;;;;;;12.80;8.23;;;4.90;99.90;;;;;;5032875;28;20181;-63
2023/11/26 03:51:26;;;;;;;9.87;7.17;;;4.90;99.90;;;;;;5033767;28;20438;-67
2023/11/26 03:53:52;;;;;;;11.53;8.90;;;4.90;99.90;;;;;;5031604;28;20447;-65
2023/11/26 03:56:17;;;;;;;9.53;7.20;;;4.90;99.90;;;;;;5033320;28;20451;-71
2023/11/26 03:58:43;;;;;;;12.00;7.93;;;4.90;99.90;;;;;;5033146;28;21033;-69
2023/11/26 04:01:09;;;;;;;10.33;7.37;;;4.90;99.90;;;;;;5033177;28;20667;-69
2023/11/26 04:03:35;;;;;;;12.47;7.50;;;4.90;99.90;;;;;;5033371;28;20432;-70
2023/11/26 04:06:01;;;;;;;10.97;7.53;;;4.90;99.90;;;;;;5032031;28;20659;-64
2023/11/26 04:08:27;;;;;;;11.70;7.50;;;4.90;99.90;;;;;;5036535;28;20240;-66
2023/11/26 04:10:53;;;;;;;14.43;6.93;;;4.80;99.90;;;;;;5033200;28;20910;-67
2023/11/26 04:13:19;;;;;;;11.10;7.27;;;4.90;99.90;;;;;;5032732;28;20444;-69
2023/11/26 04:15:54;;;;;;;10.90;7.67;;;4.80;99.90;;;;;;5032399;28;20428;-68
2023/11/26 04:18:20;;;;;;;10.60;7.40;;;4.80;99.90;;;;;;5033241;28;20213;-71
2023/11/26 04:20:47;;;;;;;12.47;8.10;;;4.70;99.90;;;;;;5032193;28;20428;-67
2023/11/26 04:23:16;;;;;;;10.77;6.87;;;4.70;99.90;;;;;;5032447;28;20950;-70
2023/11/26 04:25:44;;;;;;;9.60;7.87;;;4.80;99.90;;;;;;5032580;28;21264;-67
2023/11/26 04:28:10;;;;;;;10.87;8.30;;;4.90;99.90;;;;;;5032709;28;20551;-68
2023/11/26 04:30:36;;;;;;;14.20;9.87;;;5.00;99.90;;;;;;5033172;28;20510;-68
2023/11/26 04:33:02;;;;;;;16.07;9.00;;;5.10;99.90;;;;;;5032081;28;20428;-66
2023/11/26 04:35:28;;;;;;;15.30;10.10;;;5.10;99.90;;;;;;5032742;28;20436;-71
2023/11/26 04:37:55;;;;;;;13.33;9.10;;;5.10;99.90;;;;;;5031587;28;21268;-72
2023/11/26 04:40:21;;;;;;;11.73;9.20;;;5.20;99.90;;;;;;5032856;28;20198;-66
2023/11/26 04:42:46;;;;;;;18.90;10.20;;;5.20;99.90;;;;;;5031670;28;20955;-72
2023/11/26 04:45:13;;;;;;;15.77;10.43;;;5.30;99.90;;;;;;5031670;28;20432;-74
2023/11/26 04:47:39;;;;;;;18.57;11.83;;;5.30;99.90;;;;;;5031612;28;20291;-72
2023/11/26 04:50:06;;;;;;;17.83;11.40;;;5.30;99.90;;;;;;5031817;28;20428;-73
2023/11/26 04:52:32;;;;;;;18.90;11.00;;;5.30;99.90;;;;;;5031748;28;20927;-69
2023/11/26 04:54:58;;;;;;;19.27;13.07;;;5.30;99.90;;;;;;5030483;28;20430;-74
2023/11/26 04:57:24;;;;;;;20.47;12.10;;;5.20;99.90;;;;;;5033162;28;20831;-69
2023/11/26 04:59:50;;;;;;;19.40;13.10;;;5.20;99.90;;;;;;5032050;28;20472;-72
2023/11/26 05:02:18;;;;;;;16.07;11.00;;;5.30;99.90;;;;;;5030558;28;21009;-69
2023/11/26 05:04:44;;;;;;;15.80;11.63;;;5.30;99.90;;;;;;5031117;28;20552;-67
2023/11/26 05:07:10;;;;;;;19.97;11.47;;;5.30;99.90;;;;;;5031971;28;20487;-74
2023/11/26 05:09:35;;;;;;;17.80;12.77;;;5.30;99.90;;;;;;5033376;28;20432;-71
2023/11/26 05:12:02;;;;;;;21.33;11.60;;;5.30;99.90;;;;;;5031171;28;20198;-66
2023/11/26 05:14:28;;;;;;;19.23;11.87;;;5.30;99.90;;;;;;5031489;28;20178;-64
2023/11/26 05:16:54;;;;;;;20.10;12.70;;;5.20;99.90;;;;;;5015622;28;20437;-70
2023/11/26 05:19:19;;;;;;;20.13;12.80;;;5.10;99.90;;;;;;5032259;28;21114;-70
2023/11/26 05:21:46;;;;;;;20.67;12.40;;;5.00;99.90;;;;;;5031927;28;20429;-76
2023/11/26 05:24:13;;;;;;;17.60;11.77;;;5.00;99.90;;;;;;5031100;28;20178;-68
2023/11/26 05:26:40;;;;;;;14.87;11.87;;;4.90;99.90;;;;;;5032919;28;20523;-73
2023/11/26 05:29:06;;;;;;;18.83;11.77;;;4.90;99.90;;;;;;5031746;28;20442;-67
2023/11/26 05:31:31;;;;;;;14.50;12.00;;;4.90;99.90;;;;;;5031286;28;20433;-70
2023/11/26 05:33:57;;;;;;;21.03;12.83;;;4.90;99.90;;;;;;5030684;28;20186;-68
2023/11/26 05:36:25;;;;;;;16.03;11.40;;;4.90;99.90;;;;;;5031866;28;20406;-71
2023/11/26 05:38:51;;;;;;;17.57;11.67;;;4.90;99.90;;;;;;5031501;28;20224;-71
2023/11/26 05:41:18;;;;;;;16.10;11.33;;;4.90;99.90;;;;;;5030369;28;20481;-67
2023/11/26 05:43:44;;;;;;;17.10;11.97;;;5.00;99.90;;;;;;5031133;28;20444;-74
2023/11/26 05:46:09;;;;;;;17.57;11.10;;;5.00;99.90;;;;;;5031056;28;20428;-70
2023/11/26 05:48:35;;;;;;;22.23;12.40;;;5.00;99.90;;;;;;5029373;28;21356;-72
2023/11/26 05:51:01;;;;;;;20.63;13.37;;;4.90;99.90;;;;;;5030502;28;20190;-67
2023/11/26 05:53:27;;;;;;;18.67;13.03;;;4.90;99.90;;;;;;5031195;28;20523;-71
2023/11/26 05:55:53;;;;;;;25.00;14.37;;;4.90;99.90;;;;;;5031085;28;21062;-66
2023/11/26 05:58:20;;;;;;;22.53;16.37;;;4.90;99.90;;;;;;5030404;28;20222;-64
2023/11/26 06:00:45;;;;;;;19.23;13.93;;;4.90;99.90;;;;;;5032476;28;20447;-72
2023/11/26 06:03:11;;;;;;;21.60;16.17;;;4.90;99.90;;;;;;5030743;28;20444;-71
2023/11/26 06:05:37;;;;;;;25.53;15.80;;;4.90;99.90;;;;;;5033497;28;20918;-68
2023/11/26 06:08:03;;;;;;;23.57;17.30;;;4.90;99.90;;;;;;5032198;28;20193;-71
2023/11/26 06:10:29;;;;;;;20.23;14.97;;;4.90;99.90;;;;;;5030809;28;20194;-71
2023/11/26 06:12:55;;;;;;;23.50;15.70;;;5.00;99.90;;;;;;5031115;28;20934;-71
2023/11/26 06:15:21;;;;;;;28.07;16.43;;;4.80;99.90;;;;;;5030482;28;20467;-71
2023/11/26 06:17:47;;;;;;;25.60;15.37;;;4.90;99.90;;;;;;5032383;28;20186;-71
2023/11/26 06:20:13;;;;;;;28.73;15.73;;;5.00;99.90;;;;;;5032164;28;20194;-69
2023/11/26 06:22:39;;;;;;;30.00;18.60;;;4.90;99.90;;;;;;5032313;28;20186;-67
2023/11/26 06:25:10;;;;;;;31.80;17.37;;;4.90;99.90;;;;;;5030601;28;20433;-66
2023/11/26 06:27:37;;;;;;;24.47;17.57;;;4.90;99.90;;;;;;5031892;28;20444;-65
2023/11/26 06:30:07;;;;;;;25.00;16.10;;;4.90;99.90;;;;;;5030336;28;20488;-70
2023/11/26 06:32:32;;;;;;;25.43;16.33;;;4.90;99.90;;;;;;5030723;28;20429;-67
2023/11/26 06:34:59;;;;;;;22.70;15.17;;;4.90;99.90;;;;;;5030475;28;20959;-66
2023/11/26 06:37:25;;;;;;;27.50;15.90;;;5.00;99.90;;;;;;5030637;28;20344;-70
2023/11/26 06:39:53;;;;;;;27.43;16.47;;;5.00;99.90;;;;;;5030537;28;20480;-67
2023/11/26 06:42:18;;;;;;;25.10;16.67;;;5.00;99.90;;;;;;5029867;28;20998;-68
2023/11/26 06:44:45;;;;;;;21.97;15.37;;;4.90;99.90;;;;;;5029561;28;20435;-73
2023/11/26 06:47:10;;;;;;;21.53;15.10;;;4.80;99.90;;;;;;5029918;28;20460;-69
2023/11/26 06:49:36;;;;;;;31.50;15.93;;;4.90;99.90;;;;;;5029280;28;20514;-67
2023/11/26 06:52:02;;;;;;;22.10;16.03;;;4.80;99.90;;;;;;5029871;28;20637;-69
2023/11/26 06:54:27;;;;;;;26.80;16.10;;;4.80;99.90;;;;;;5030407;28;20272;-74
2023/11/26 06:56:53;;;;;;;29.63;15.43;;;4.80;99.90;;;;;;5029451;28;20260;-67
2023/11/26 06:59:19;;;;;;;23.07;15.17;;;4.80;99.90;;;;;;5030076;28;20210;-67
2023/11/26 07:01:44;;;;;;;21.30;14.50;;;4.80;99.90;;;;;;5030924;28;20185;-70
2023/11/26 07:04:10;;;;;;;23.27;14.33;;;4.80;99.90;;;;;;5029392;28;20182;-70
2023/11/26 07:06:36;;;;;;;21.80;14.87;;;4.80;99.90;;;;;;5030515;28;20488;-75
2023/11/26 07:09:07;;;;;;;22.03;14.53;;;4.90;99.90;;;;;;5029677;28;20182;-68
2023/11/26 07:11:32;;;;;;;23.40;14.53;;;4.90;99.90;;;;;;5029517;28;20986;-69
2023/11/26 07:13:58;;;;;;;23.20;15.83;;;4.80;99.90;;;;;;5029367;28;20435;-70
2023/11/26 07:16:24;;;;;;;22.57;15.47;;;4.80;99.90;;;;;;5029875;28;20213;-67
2023/11/26 07:18:50;;;;;;;23.03;16.30;;;4.80;99.90;;;;;;5029790;28;20252;-76
2023/11/26 07:21:15;;;;;;;24.77;15.53;;;4.80;99.90;;;;;;5029529;28;20671;-70
2023/11/26 07:23:42;;;;;;;25.10;15.43;;;4.80;99.90;;;;;;5029560;28;20464;-71
2023/11/26 07:26:12;;;;;;;27.00;17.10;;;4.70;99.90;;;;;;5028995;28;20178;-72
2023/11/26 07:28:39;;;;;;;26.67;17.00;;;4.80;99.90;;;;;;5030560;28;20440;-68
2023/11/26 07:31:15;;;;;;;25.20;16.33;;;4.80;99.90;;;;;;5029271;28;21155;-65
2023/11/26 07:33:41;;;;;;;28.30;17.20;;;4.80;99.90;;;;;;5029106;28;20446;-73
2023/11/26 07:36:17;;;;;;;31.07;18.73;;;4.80;99.90;;;;;;5029511;28;20431;-68
2023/11/26 07:38:43;;;;;;;27.20;18.60;;;4.80;99.90;;;;;;5029272;28;20766;-69
2023/11/26 07:41:09;;;;;;;27.60;18.00;;;4.80;99.90;;;;;;5029939;28;20457;-63
2023/11/26 07:43:42;;;;;;;27.17;18.20;;;4.90;99.90;;;;;;5029261;28;20858;-71
2023/11/26 07:46:08;;;;;;;28.90;18.87;;;4.90;99.90;;;;;;5030564;28;20542;-72
2023/11/26 07:48:35;;;;;;;33.17;18.57;;;4.90;99.90;;;;;;5027686;28;20459;-71
2023/11/26 07:51:03;;;;;;;30.07;17.87;;;4.90;99.90;;;;;;5030761;28;20428;-68
2023/11/26 07:53:33;;;;;;;28.10;18.10;;;4.80;99.90;;;;;;5027982;28;20935;-67
2023/11/26 07:56:01;;;;;;;27.73;17.83;;;4.80;99.90;;;;;;5029100;28;20432;-68
2023/11/26 07:58:28;;;;;;;30.80;18.33;;;4.90;99.90;;;;;;5034183;28;20467;-69
2023/11/26 08:00:57;;;;;;;28.70;18.50;;;4.90;99.90;;;;;;5028423;28;20420;-69
2023/11/26 08:03:25;;;;;;;26.50;18.77;;;4.80;99.90;;;;;;5029669;28;20453;-68
2023/11/26 08:05:52;;;;;;;24.60;17.23;;;4.80;99.90;;;;;;5028387;28;20452;-68
2023/11/26 08:08:22;;;;;;;29.97;17.37;;;4.80;99.90;;;;;;5030003;28;20436;-69
2023/11/26 08:10:52;;;;;;;31.47;18.10;;;4.90;99.90;;;;;;5028466;28;20436;-66
2023/11/26 08:13:22;;;;;;;28.67;17.07;;;4.80;99.90;;;;;;5032088;28;20428;-72
2023/11/26 08:15:52;;;;;;;28.73;18.37;;;4.90;99.90;;;;;;5031526;28;20447;-69
2023/11/26 08:18:18;;;;;;;29.57;18.03;;;4.90;99.90;;;;;;5032848;28;20460;-71
2023/11/26 08:20:46;;;;;;;30.27;17.17;;;4.90;99.90;;;;;;5030177;28;20461;-70
2023/11/26 08:23:12;;;;;;;26.97;17.30;;;5.00;99.90;;;;;;5032381;28;20479;-75
2023/11/26 08:25:39;;;;;;;27.83;16.60;;;5.10;99.90;;;;;;5032646;28;21017;-68
2023/11/26 08:28:07;;;;;;;25.13;17.00;;;5.10;99.90;;;;;;5035359;28;20209;-70
2023/11/26 08:30:42;;;;;;;34.33;20.03;;;5.20;99.90;;;;;;5033318;28;21147;-70
2023/11/26 08:33:10;;;;;;;29.60;19.13;;;5.10;99.90;;;;;;5032333;28;20447;-69
2023/11/26 08:35:37;;;;;;;24.10;16.40;;;5.20;99.90;;;;;;5032527;28;20555;-69
2023/11/26 08:38:05;;;;;;;26.47;17.50;;;5.10;99.90;;;;;;5028673;28;21092;-73
2023/11/26 08:40:34;;;;;;;24.80;16.67;;;5.20;99.90;;;;;;5030538;28;20477;-71
2023/11/26 08:43:01;;;;;;;25.73;17.30;;;5.20;99.90;;;;;;5030336;28;20481;-69
2023/11/26 08:45:27;;;;;;;30.17;19.13;;;5.20;99.90;;;;;;5029023;28;20563;-68
2023/11/26 08:47:55;;;;;;;26.23;17.53;;;5.20;99.90;;;;;;5029079;28;20469;-63
2023/11/26 08:50:22;;;;;;;27.30;17.67;;;5.10;99.90;;;;;;5031912;28;20452;-70
2023/11/26 08:52:48;;;;;;;30.57;19.23;;;5.10;99.90;;;;;;5030799;28;20464;-70
2023/11/26 08:55:14;;;;;;;24.37;17.73;;;5.20;99.90;;;;;;5031591;28;20456;-73
2023/11/26 08:57:40;;;;;;;29.23;18.10;;;5.10;99.90;;;;;;5031347;28;21106;-70
2023/11/26 09:00:09;;;;;;;25.70;17.03;;;5.10;99.90;;;;;;5031750;28;20951;-68
2023/11/26 09:02:38;;;;;;;23.60;17.20;;;5.20;99.90;;;;;;5030632;28;20963;-68
2023/11/26 09:05:08;;;;;;;24.63;16.40;;;5.30;99.90;;;;;;5030147;28;21019;-70
2023/11/26 09:07:41;;;;;;;29.47;17.90;;;5.40;99.90;;;;;;5032195;28;20464;-70
2023/11/26 09:10:08;;;;;;;27.17;17.50;;;5.30;99.90;;;;;;5031882;28;20790;-70
2023/11/26 09:12:34;;;;;;;21.60;16.80;;;5.30;99.90;;;;;;5031184;28;20472;-69
2023/11/26 09:14:59;;;;;;;30.67;17.93;;;5.40;99.90;;;;;;5031031;28;20464;-72
2023/11/26 09:17:26;;;;;;;23.50;16.60;;;5.50;99.90;;;;;;5030552;28;20270;-66
2023/11/26 09:19:53;;;;;;;23.20;16.40;;;5.50;99.90;;;;;;5031385;28;22398;-74
2023/11/26 09:22:18;;;;;;;30.37;17.10;;;5.40;99.90;;;;;;5031506;28;20488;-68
2023/11/26 09:24:45;;;;;;;24.67;17.97;;;5.50;99.90;;;;;;5032089;28;20566;-70
2023/11/26 09:27:10;;;;;;;28.30;17.40;;;5.60;99.90;;;;;;5029340;28;20256;-67
2023/11/26 09:29:36;;;;;;;28.13;18.10;;;5.60;99.90;;;;;;5031183;28;20822;-67
2023/11/26 09:32:02;;;;;;;24.67;16.60;;;5.60;99.90;;;;;;5030372;28;20209;-62
2023/11/26 09:34:28;;;;;;;24.47;16.70;;;5.70;99.90;;;;;;5031014;28;20303;-65
2023/11/26 09:36:56;;;;;;;27.67;17.57;;;5.60;99.90;;;;;;5030098;28;20543;-66
2023/11/26 09:39:21;;;;;;;27.87;16.57;;;5.60;99.90;;;;;;5030360;28;20226;-72
2023/11/26 09:41:47;;;;;;;23.83;17.37;;;5.70;99.90;;;;;;5030747;28;21166;-68
2023/11/26 09:44:13;;;;;;;24.80;15.70;;;5.70;99.90;;;;;;5029893;28;20333;-67
2023/11/26 09:46:39;;;;;;;21.80;15.87;;;5.70;99.90;;;;;;5030804;28;20205;-68
2023/11/26 09:49:05;;;;;;;24.70;17.10;;;5.70;99.90;;;;;;5027765;28;20461;-68
2023/11/26 09:51:32;;;;;;;22.50;16.13;;;5.90;99.90;;;;;;5031330;28;20206;-71
2023/11/26 09:53:58;;;;;;;21.30;15.17;;;6.00;99.90;;;;;;5028910;28;20468;-68
2023/11/26 09:56:24;;;;;;;25.60;17.53;;;6.20;99.90;;;;;;5030822;28;20480;-66
2023/11/26 09:58:50;;;;;;;19.73;14.73;;;6.50;99.90;;;;;;5030127;28;20234;-64
2023/11/26 10:01:16;;;;;;;19.53;14.77;;;6.80;99.90;;;;;;5030161;28;20531;-67
2023/11/26 10:03:58;;;;;;;22.57;14.43;;;7.30;99.90;;;;;;5030411;28;20218;-68
2023/11/26 10:06:28;;;;;;;21.63;14.27;;;7.60;99.90;;;;;;5029765;28;20228;-67
2023/11/26 10:08:55;;;;;;;19.30;12.87;;;8.20;99.90;;;;;;5029934;28;20468;-68
2023/11/26 10:11:22;;;;;;;16.27;11.40;;;8.40;99.90;;;;;;5030406;28;21124;-67
2023/11/26 10:13:48;;;;;;;14.70;12.10;;;8.80;99.90;;;;;;5028585;28;20465;-71
2023/11/26 10:16:34;;;;;;;14.13;11.10;;;9.40;99.90;;;;;;5028403;28;20832;-67
2023/11/26 10:19:03;;;;;;;15.43;12.23;;;9.90;99.90;;;;;;5030569;28;20510;-72
2023/11/26 10:21:31;;;;;;;16.83;12.33;;;10.40;99.90;;;;;;5029391;28;20511;-67
2023/11/26 10:24:01;;;;;;;13.17;10.40;;;10.70;99.90;;;;;;5028918;28;20931;-70
2023/11/26 10:26:28;;;;;;;18.67;10.53;;;11.20;99.90;;;;;;5029719;28;20456;-72
2023/11/26 10:29:08;;;;;;;14.77;9.97;;;11.70;99.90;;;;;;5030123;28;20478;-64
2023/11/26 10:31:34;;;;;;;13.37;9.43;;;12.10;99.90;;;;;;5028464;28;20452;-68
2023/11/26 10:34:10;;;;;;;14.53;10.40;;;12.80;99.90;;;;;;5027440;28;20489;-65
2023/11/26 10:36:36;;;;;;;11.93;9.30;;;13.10;99.90;;;;;;5030493;28;20487;-65
2023/11/26 10:39:04;;;;;;;13.57;9.93;;;13.70;99.90;;;;;;5029709;28;20531;-65
2023/11/26 10:41:34;;;;;;;13.43;8.87;;;14.00;99.90;;;;;;5030075;28;20221;-69
2023/11/26 10:44:00;;;;;;;14.57;10.87;;;13.90;99.90;;;;;;5028374;28;20464;-70
2023/11/26 10:46:26;;;;;;;12.30;10.80;;;14.60;99.90;;;;;;5029291;28;20785;-70
2023/11/26 10:49:07;;;;;;;11.83;9.60;;;15.30;99.90;;;;;;5029058;28;21269;-70
2023/11/26 10:51:34;;;;;;;12.13;9.27;;;16.10;99.90;;;;;;5031140;28;20491;-66
2023/11/26 10:54:04;;;;;;;10.30;9.20;;;16.40;99.90;;;;;;5028848;28;20967;-70
2023/11/26 10:56:40;;;;;;;10.37;9.30;;;16.20;99.90;;;;;;5048316;28;20461;-68
2023/11/26 10:59:14;;;;;;;12.73;11.43;;;16.50;99.90;;;;;;5029061;28;20551;-71
2023/11/26 11:01:42;;;;;;;11.67;9.70;;;16.30;99.90;;;;;;5030057;28;20547;-66
2023/11/26 11:04:13;;;;;;;11.03;9.63;;;16.50;99.90;;;;;;5028287;28;20470;-67
2023/11/26 11:06:39;;;;;;;13.57;11.03;;;16.60;99.70;;;;;;5030724;28;20493;-75
2023/11/26 11:09:06;;;;;;;12.23;11.03;;;17.00;99.50;;;;;;5028644;28;21392;-65
2023/11/26 11:11:43;;;;;;;10.53;9.53;;;16.50;98.40;;;;;;5029348;28;20209;-69
2023/11/26 11:14:10;;;;;;;13.33;8.97;;;16.10;99.90;;;;;;5029343;28;20469;-67
2023/11/26 11:16:36;;;;;;;13.37;11.00;;;16.60;99.90;;;;;;5028853;28;20578;-67
2023/11/26 11:19:02;;;;;;;12.90;11.60;;;16.80;99.70;;;;;;5028955;28;20529;-72
2023/11/26 11:21:28;;;;;;;15.00;10.37;;;16.50;99.40;;;;;;5030295;28;20918;-69
2023/11/26 11:23:55;;;;;;;10.60;9.60;;;16.30;99.90;;;;;;5028282;28;20817;-69
2023/11/26 11:26:22;;;;;;;11.80;10.60;;;16.30;99.90;;;;;;5029159;28;20266;-71
2023/11/26 11:28:55;;;;;;;11.40;10.20;;;16.40;99.90;;;;;;5029929;28;20954;-67
2023/11/26 11:31:47;;;;;;;11.27;10.07;;;16.50;99.90;;;;;;5028499;28;20444;-67
2023/11/26 11:34:13;;;;;;;12.33;11.17;;;16.70;99.80;;;;;;5019643;28;20493;-67
2023/11/26 11:36:44;;;;;;;11.93;10.67;;;16.30;99.50;;;;;;5033469;28;20651;-67
2023/11/26 11:39:13;;;;;;;13.90;11.30;;;16.40;99.90;;;;;;5027213;28;20205;-68
2023/11/26 11:41:57;;;;;;;12.40;11.10;;;15.70;99.90;;;;;;5032245;28;20460;-72
2023/11/26 11:44:29;;;;;;;13.70;12.30;;;15.40;99.90;;;;;;5030435;28;20482;-71
2023/11/26 11:46:58;;;;;;;11.90;10.80;;;15.10;99.90;;;;;;5026866;28;21025;-73
2023/11/26 11:49:28;;;;;;;11.80;10.43;;;15.40;99.90;;;;;;5031664;28;21619;-71
2023/11/26 11:51:54;;;;;;;12.70;10.60;;;15.50;99.90;;;;;;5034207;28;20476;-71
2023/11/26 11:54:52;;;;;;;12.97;11.20;;;15.80;99.90;;;;;;5031335;28;20578;-69
2023/11/26 11:57:22;;;;;;;12.77;11.43;;;16.30;99.90;;;;;;5032283;28;20556;-69
2023/11/26 11:59:50;;;;;;;12.90;11.57;;;16.20;99.90;;;;;;5032405;28;20468;-68
2023/11/26 12:02:16;;;;;;;12.83;11.63;;;16.80;99.90;;;;;;5030844;28;20490;-66
2023/11/26 12:04:46;;;;;;;12.43;11.23;;;17.10;99.80;;;;;;5028748;28;20544;-66
2023/11/26 12:07:12;;;;;;;12.37;10.87;;;17.30;99.40;;;;;;5032441;28;20436;-70
2023/11/26 12:09:39;;;;;;;13.13;11.73;;;17.60;99.00;;;;;;5032721;28;20483;-69
2023/11/26 12:12:06;;;;;;;12.10;10.90;;;17.80;97.90;;;;;;5033013;28;20439;-67
2023/11/26 12:14:32;;;;;;;11.40;10.20;;;18.10;98.20;;;;;;5030152;28;20557;-69
2023/11/26 12:17:01;;;;;;;12.27;10.90;;;18.30;97.60;;;;;;5033424;28;20440;-69
2023/11/26 12:19:33;;;;;;;12.30;11.10;;;18.20;97.90;;;;;;5033218;28;20558;-69
2023/11/26 12:22:06;;;;;;;12.73;11.43;;;17.90;97.80;;;;;;5047816;28;20943;-71
2023/11/26 12:24:33;;;;;;;12.23;11.07;;;17.50;98.50;;;;;;5030654;28;20420;-66
2023/11/26 12:26:59;;;;;;;9.60;8.63;;;17.10;98.90;;;;;;5032636;28;20433;-70
2023/11/26 12:29:36;;;;;;;11.83;10.63;;;16.90;99.40;;;;;;5032581;28;20454;-69
2023/11/26 12:32:06;;;;;;;10.10;9.10;;;17.40;99.50;;;;;;5032354;28;20429;-69
2023/11/26 12:34:39;;;;;;;15.73;11.27;;;17.20;98.80;;;;;;5029616;28;20447;-66
2023/11/26 12:37:07;;;;;;;12.67;11.10;;;16.70;98.80;;;;;;5032854;28;20526;-68
2023/11/26 12:39:38;;;;;;;12.40;10.10;;;16.70;99.60;;;;;;5031194;28;20481;-68
2023/11/26 12:42:04;;;;;;;11.97;10.70;;;16.80;99.90;;;;;;5030407;28;20444;-69
2023/11/26 12:44:33;;;;;;;11.23;10.10;;;16.70;99.40;;;;;;5030519;28;20855;-68
2023/11/26 12:47:06;;;;;;;12.83;11.57;;;16.70;99.80;;;;;;5031673;28;20425;-70